Terminal Aerodrome Forecast
Issued by NWS

Home | Current Version | Previous Version | Text Only | Print | Product List | Glossary On
Versions: 1 2 3 4 5 6 7 8 9 10 11 12 13 14 15 16 17 18 19 20 21 22 23 24 25 26 27 28 29 30
104
FTUS41 KCAR 100537
TAFPQI
TAF
KPQI 100537Z 1006/1106 30007G13KT P6SM SCT035
      TEMPO 1006/1008 -SHSN BKN030
     FM100800 30007G13KT P6SM -SHSN BKN028
     FM101500 30013G21KT P6SM VCSH BKN035
     FM101900 31012G20KT P6SM SCT035
     FM102300 30008KT P6SM SCT030=

USA.gov is the U.S. government's official web portal to all federal, state and local government web resources and services.